createdAt,value
2023-01-09T00:01:59.589Z,97548.53
2023-01-09T00:04:26.173Z,97543.47
2023-01-09T00:06:56.268Z,97549.19
2023-01-09T00:09:24.081Z,97537.31
2023-01-09T00:11:51.537Z,97550.13
2023-01-09T00:14:19.111Z,97541.59
2023-01-09T00:16:45.893Z,97546.81
2023-01-09T00:19:12.513Z,97546.69
2023-01-09T00:21:39.178Z,97551.63
2023-01-09T00:24:06.238Z,97536.59
2023-01-09T00:26:33.183Z,97537.66
2023-01-09T00:28:59.748Z,97547.19
2023-01-09T00:31:26.389Z,97555.59
2023-01-09T00:34:00.184Z,97552.63
2023-01-09T00:36:27.230Z,97558.31
2023-01-09T00:38:53.831Z,97563.88
2023-01-09T00:41:34.437Z,97578.13
2023-01-09T00:44:06.164Z,97577.03
2023-01-09T00:46:37.682Z,97574.19
2023-01-09T00:49:07.533Z,97583.53
2023-01-09T00:51:34.524Z,97589.69
2023-01-09T00:54:03.224Z,97600.59
2023-01-09T00:56:29.965Z,97587.31
2023-01-09T00:58:56.690Z,97595.69
2023-01-09T01:01:23.340Z,97605.53
2023-01-09T01:03:49.994Z,97609.50
2023-01-09T01:06:35.177Z,97624.03
2023-01-09T01:09:01.968Z,97618.66
2023-01-09T01:11:28.495Z,97624.03
2023-01-09T01:13:55.429Z,97606.97
2023-01-09T01:16:22.034Z,97619.16
2023-01-09T01:18:48.843Z,97624.38
2023-01-09T01:21:15.579Z,97619.47
2023-01-09T01:23:43.205Z,97606.66
2023-01-09T01:26:15.412Z,97619.66
2023-01-09T01:28:42.466Z,97616.50
2023-01-09T01:31:15.254Z,97627.09
2023-01-09T01:33:41.817Z,97634.69
2023-01-09T01:36:09.078Z,97633.75
2023-01-09T01:38:36.760Z,97636.75
2023-01-09T01:41:04.437Z,97641.66
2023-01-09T01:43:51.618Z,97654.19
2023-01-09T01:46:19.127Z,97659.56
2023-01-09T01:48:48.062Z,97678.38
2023-01-09T01:51:18.310Z,97686.44
2023-01-09T01:53:49.678Z,97692.63
2023-01-09T01:56:28.827Z,97713.81
2023-01-09T01:59:07.103Z,97716.50
2023-01-09T02:01:34.606Z,97714.28
2023-01-09T02:04:02.592Z,97718.25
2023-01-09T02:06:30.549Z,97724.38
2023-01-09T02:08:57.901Z,97720.94
2023-01-09T02:11:24.874Z,97723.63
2023-01-09T02:13:51.966Z,97728.66
2023-01-09T02:16:33.497Z,97731.34
2023-01-09T02:19:37.873Z,97739.75
2023-01-09T02:22:16.575Z,97746.38
2023-01-09T02:25:28.471Z,97755.56
2023-01-09T02:28:33.901Z,97751.28
2023-01-09T02:31:09.080Z,97749.06
2023-01-09T02:34:03.351Z,97763.63
2023-01-09T02:37:02.483Z,97761.25
2023-01-09T02:39:47.244Z,97762.06
2023-01-09T02:42:19.054Z,97771.84
2023-01-09T02:44:45.612Z,97776.44
2023-01-09T02:47:15.157Z,97784.19
2023-01-09T02:49:46.755Z,97769.97
2023-01-09T02:52:35.079Z,97782.28
2023-01-09T02:55:01.660Z,97795.53
2023-01-09T02:58:05.358Z,97795.56
2023-01-09T03:00:41.907Z,97803.13
2023-01-09T03:03:17.762Z,97798.38
2023-01-09T03:05:51.476Z,97812.59
2023-01-09T03:08:30.442Z,97805.41
2023-01-09T03:11:04.804Z,97792.88
2023-01-09T03:13:42.138Z,97807.06
2023-01-09T03:16:11.594Z,97801.34
2023-01-09T03:18:39.367Z,97804.16
2023-01-09T03:21:08.814Z,97797.22
2023-01-09T03:23:51.340Z,97802.09
2023-01-09T03:26:18.665Z,97795.63
2023-01-09T03:28:46.109Z,97801.50
2023-01-09T03:31:13.250Z,97805.56
2023-01-09T03:33:40.344Z,97809.34
2023-01-09T03:36:07.523Z,97810.78
2023-01-09T03:38:34.325Z,97810.16
2023-01-09T03:41:01.044Z,97810.16
2023-01-09T03:43:28.194Z,97804.47
2023-01-09T03:45:55.261Z,97803.69
2023-01-09T03:48:21.855Z,97812.84
2023-01-09T03:50:52.737Z,97812.53
2023-01-09T03:53:21.137Z,97819.31
2023-01-09T03:55:49.748Z,97816.88
2023-01-09T03:58:17.964Z,97815.91
2023-01-09T04:00:46.240Z,97814.81
2023-01-09T04:03:13.258Z,97823.97
2023-01-09T04:05:39.824Z,97827.13
2023-01-09T04:08:06.596Z,97827.63
2023-01-09T04:10:33.284Z,97823.97
2023-01-09T04:12:59.876Z,97821.28
2023-01-09T04:15:26.638Z,97835.19
2023-01-09T04:17:53.194Z,97841.03
2023-01-09T04:20:19.749Z,97825.13
2023-01-09T04:22:46.504Z,97834.47
2023-01-09T04:25:13.137Z,97832.75
2023-01-09T04:27:39.715Z,97841.75
2023-01-09T04:30:07.016Z,97848.72
2023-01-09T04:32:33.560Z,97831.97
2023-01-09T04:35:00.152Z,97849.53
2023-01-09T04:37:26.773Z,97856.19
2023-01-09T04:39:55.999Z,97859.66
2023-01-09T04:42:23.095Z,97863.63
2023-01-09T04:44:53.699Z,97861.75
2023-01-09T04:47:21.565Z,97845.63
2023-01-09T04:49:48.173Z,97853.06
2023-01-09T04:52:14.841Z,97864.44
2023-01-09T04:54:41.594Z,97866.06
2023-01-09T04:57:08.157Z,97868.44
2023-01-09T04:59:35.088Z,97866.84
2023-01-09T05:02:01.887Z,97873.78
2023-01-09T05:04:28.569Z,97875.38
2023-01-09T05:06:55.183Z,97852.31
2023-01-09T05:09:22.822Z,97863.53
2023-01-09T05:11:50.351Z,97859.25
2023-01-09T05:14:17.051Z,97867.81
2023-01-09T05:16:43.704Z,97877.44
2023-01-09T05:19:10.354Z,97880.13
2023-01-09T05:21:37.160Z,97876.84
2023-01-09T05:24:03.806Z,97888.13
2023-01-09T05:26:30.422Z,97886.50
2023-01-09T05:28:56.970Z,97892.97
2023-01-09T05:31:25.593Z,97884.72
2023-01-09T05:33:53.113Z,97885.50
2023-01-09T05:36:20.013Z,97880.13
2023-01-09T05:38:46.581Z,97897.34
2023-01-09T05:41:13.160Z,97896.09
2023-01-09T05:43:39.788Z,97895.28
2023-01-09T05:46:06.542Z,97892.31
2023-01-09T05:48:33.150Z,97894.66
2023-01-09T05:50:59.748Z,97895.47
2023-01-09T05:53:26.330Z,97899.56
2023-01-09T05:55:52.862Z,97890.81
2023-01-09T05:58:19.544Z,97889.22
2023-01-09T06:00:46.217Z,97903.00
2023-01-09T06:03:12.785Z,97911.41
2023-01-09T06:05:39.519Z,97902.44
2023-01-09T06:08:06.121Z,97895.78
2023-01-09T06:10:32.723Z,97905.75
2023-01-09T06:12:59.264Z,97903.56
2023-01-09T06:15:25.866Z,97900.88
2023-01-09T06:17:52.428Z,97916.53
2023-01-09T06:20:19.243Z,97904.16
2023-01-09T06:22:45.949Z,97915.28
2023-01-09T06:25:13.436Z,97917.97
2023-01-09T06:27:40.066Z,97927.63
2023-01-09T06:30:07.540Z,97911.78
2023-01-09T06:32:34.117Z,97925.06
2023-01-09T06:35:00.711Z,97935.06
2023-01-09T06:37:27.461Z,97944.38
2023-01-09T06:39:54.781Z,97942.44
2023-01-09T06:42:22.115Z,97942.53
2023-01-09T06:44:48.656Z,97954.81
2023-01-09T06:47:15.243Z,97944.63
2023-01-09T06:49:41.819Z,97958.66
2023-01-09T06:52:08.372Z,97955.13
2023-01-09T06:54:35.293Z,97950.38
2023-01-09T06:57:02.155Z,97958.75
2023-01-09T06:59:28.729Z,97942.44
2023-01-09T07:01:55.890Z,97948.41
2023-01-09T07:04:23.366Z,97947.44
2023-01-09T07:06:50.102Z,97951.22
2023-01-09T07:09:16.764Z,97964.16
2023-01-09T07:11:43.427Z,97952.47
2023-01-09T07:14:09.994Z,97953.72
2023-01-09T07:16:36.644Z,97967.16
2023-01-09T07:19:03.329Z,97959.41
2023-01-09T07:21:32.562Z,97957.22
2023-01-09T07:23:59.384Z,97951.84
2023-01-09T07:26:25.974Z,97963.06
2023-01-09T07:28:52.675Z,97971.41
2023-01-09T07:31:19.276Z,97972.22
2023-01-09T07:33:45.935Z,97976.50
2023-01-09T07:36:12.636Z,97973.69
2023-01-09T07:38:39.689Z,97987.00
2023-01-09T07:41:06.477Z,97988.59
2023-01-09T07:43:33.203Z,97988.28
2023-01-09T07:45:59.937Z,97989.59
2023-01-09T07:48:26.515Z,97985.00
2023-01-09T07:50:53.119Z,97991.78
2023-01-09T07:53:19.731Z,97999.34
2023-01-09T07:55:46.340Z,98007.72
2023-01-09T07:58:13.082Z,97993.19
2023-01-09T08:00:39.840Z,98001.72
2023-01-09T08:03:06.577Z,97995.75
2023-01-09T08:05:33.669Z,98004.13
2023-01-09T08:08:01.982Z,97993.38
2023-01-09T08:10:28.628Z,97991.78
2023-01-09T08:12:55.301Z,97995.25
2023-01-09T08:15:21.992Z,97993.97
2023-01-09T08:17:49.880Z,97999.16
2023-01-09T08:20:17.644Z,98000.97
2023-01-09T08:22:50.182Z,98013.28
2023-01-09T08:25:18.180Z,98005.81
2023-01-09T08:27:45.276Z,98016.06
2023-01-09T08:30:12.883Z,98017.16
2023-01-09T08:32:39.813Z,98001.53
2023-01-09T08:35:07.568Z,98014.88
2023-01-09T08:37:34.271Z,98015.66
2023-01-09T08:40:00.996Z,98016.47
2023-01-09T08:42:46.336Z,98025.00
2023-01-09T08:45:48.571Z,98017.72
2023-01-09T08:48:15.386Z,98019.78
2023-01-09T08:50:42.046Z,98013.63
2023-01-09T08:53:08.631Z,98013.31
2023-01-09T08:55:35.236Z,98010.03
2023-01-09T08:58:02.425Z,98010.81
2023-01-09T09:00:28.970Z,98007.66
2023-01-09T09:03:00.198Z,98016.81
2023-01-09T09:05:28.541Z,98009.72
2023-01-09T09:07:56.384Z,98013.97
2023-01-09T09:10:25.011Z,98025.22
2023-01-09T09:12:53.358Z,98014.59
2023-01-09T09:15:24.195Z,98029.75
2023-01-09T09:18:03.125Z,98023.41
2023-01-09T09:20:35.754Z,98029.41
2023-01-09T09:23:02.752Z,98030.56
2023-01-09T09:25:29.666Z,98042.75
2023-01-09T09:27:56.451Z,98035.78
2023-01-09T09:30:23.948Z,98036.06
2023-01-09T09:32:50.663Z,98046.34
2023-01-09T09:35:18.114Z,98045.72
2023-01-09T09:37:56.746Z,98050.41
2023-01-09T09:40:50.782Z,98057.91
2023-01-09T09:43:51.591Z,98055.34
2023-01-09T09:46:21.358Z,98055.97
2023-01-09T09:48:52.271Z,98062.25
2023-01-09T09:51:28.299Z,98063.53
2023-01-09T09:54:00.028Z,98051.41
2023-01-09T09:56:29.912Z,98062.94
2023-01-09T09:59:02.213Z,98065.31
2023-01-09T10:01:44.853Z,98066.41
2023-01-09T10:04:16.664Z,98065.50
2023-01-09T10:06:52.762Z,98060.31
2023-01-09T10:09:31.394Z,98057.34
2023-01-09T10:12:12.911Z,98060.50
2023-01-09T10:14:39.910Z,98058.47
2023-01-09T10:17:32.312Z,98061.06
2023-01-09T10:20:10.709Z,98051.91
2023-01-09T10:23:02.334Z,98057.84
2023-01-09T10:25:40.650Z,98053.25
2023-01-09T10:28:31.861Z,98061.38
2023-01-09T10:31:01.018Z,98062.84
2023-01-09T10:33:36.785Z,98047.41
2023-01-09T10:36:30.409Z,98038.91
2023-01-09T10:39:04.215Z,98049.88
2023-01-09T10:41:48.547Z,98045.47
2023-01-09T10:44:26.010Z,98043.88
2023-01-09T10:46:55.080Z,98054.38
2023-01-09T10:49:23.770Z,98048.72
2023-01-09T10:52:11.323Z,98045.09
2023-01-09T10:55:02.636Z,98043.22
2023-01-09T10:57:44.637Z,98053.50
2023-01-09T11:00:21.660Z,98062.72
2023-01-09T11:02:49.819Z,98060.50
2023-01-09T11:05:32.431Z,98075.06
2023-01-09T11:08:08.595Z,98067.13
2023-01-09T11:10:54.195Z,98065.84
2023-01-09T11:13:43.577Z,98075.00
2023-01-09T11:16:24.001Z,98071.81
2023-01-09T11:18:57.810Z,98067.53
2023-01-09T11:21:28.246Z,98087.13
2023-01-09T11:23:56.280Z,98089.47
2023-01-09T11:26:27.936Z,98080.44
2023-01-09T11:29:16.825Z,98090.88
2023-01-09T11:32:02.790Z,98092.25
2023-01-09T11:34:32.700Z,98119.16
2023-01-09T11:37:11.917Z,98105.84
2023-01-09T11:39:42.018Z,98112.81
2023-01-09T11:42:47.591Z,98123.56
2023-01-09T11:45:14.194Z,98119.00
2023-01-09T11:47:41.252Z,98113.13
2023-01-09T11:50:25.602Z,98119.75
2023-01-09T11:53:13.791Z,98110.72
2023-01-09T11:55:42.908Z,98102.84
2023-01-09T11:58:18.636Z,98115.97
2023-01-09T12:01:03.401Z,98119.47
2023-01-09T12:04:05.687Z,98121.97
2023-01-09T12:07:08.693Z,98128.94
2023-01-09T12:10:08.858Z,98117.56
2023-01-09T12:12:57.315Z,98112.19
2023-01-09T12:15:46.876Z,98112.19
2023-01-09T12:18:32.567Z,98105.22
2023-01-09T12:21:14.179Z,98106.03
2023-01-09T12:23:56.117Z,98101.31
2023-01-09T12:26:32.629Z,98100.22
2023-01-09T12:29:17.936Z,98117.94
2023-01-09T12:31:53.439Z,98115.97
2023-01-09T12:34:44.379Z,98123.41
2023-01-09T12:37:23.254Z,98118.31
2023-01-09T12:40:10.387Z,98121.63
2023-01-09T12:42:45.758Z,98123.81
2023-01-09T12:45:50.997Z,98135.19
2023-01-09T12:48:38.948Z,98138.97
2023-01-09T12:51:05.454Z,98150.69
2023-01-09T12:53:41.024Z,98140.91
2023-01-09T12:56:15.293Z,98139.34
2023-01-09T12:58:52.799Z,98137.38
2023-01-09T13:01:39.179Z,98144.44
2023-01-09T13:04:05.733Z,98132.78
2023-01-09T13:06:35.529Z,98145.31
2023-01-09T13:09:28.474Z,98145.94
2023-01-09T13:12:03.083Z,98141.53
2023-01-09T13:14:47.553Z,98147.53
2023-01-09T13:17:26.423Z,98143.38
2023-01-09T13:19:54.155Z,98142.75
2023-01-09T13:22:25.503Z,98148.56
2023-01-09T13:25:11.360Z,98156.13
2023-01-09T13:27:41.863Z,98152.03
2023-01-09T13:30:21.093Z,98156.28
2023-01-09T13:32:57.171Z,98150.91
2023-01-09T13:35:23.897Z,98162.47
2023-01-09T13:37:53.300Z,98176.22
2023-01-09T13:40:19.871Z,98183.41
2023-01-09T13:43:16.903Z,98193.28
2023-01-09T13:45:44.862Z,98221.75
2023-01-09T13:48:12.106Z,98201.19
2023-01-09T13:50:40.426Z,98208.16
2023-01-09T13:53:25.324Z,98216.72
2023-01-09T13:55:58.456Z,98210.91
2023-01-09T13:58:29.578Z,98216.88
2023-01-09T14:01:05.671Z,98221.84
2023-01-09T14:03:37.631Z,98228.00
2023-01-09T14:06:12.198Z,98232.00
2023-01-09T14:08:42.119Z,98239.72
2023-01-09T14:11:09.358Z,98249.91
2023-01-09T14:13:45.772Z,98246.31
2023-01-09T14:16:20.447Z,98253.25
2023-01-09T14:18:52.188Z,98257.47
2023-01-09T14:21:19.404Z,98264.44
2023-01-09T14:24:06.745Z,98271.16
2023-01-09T14:26:42.910Z,98273.84
2023-01-09T14:29:31.012Z,98275.75
2023-01-09T14:32:22.484Z,98284.88
2023-01-09T14:35:05.939Z,98281.78
2023-01-09T14:37:35.997Z,98294.44
2023-01-09T14:40:06.810Z,98302.75
2023-01-09T14:42:35.564Z,98302.75
2023-01-09T14:45:06.371Z,98303.63
2023-01-09T14:47:47.061Z,98306.31
2023-01-09T14:50:29.877Z,98312.28
2023-01-09T14:53:08.237Z,98320.63
2023-01-09T14:55:51.070Z,98336.25
2023-01-09T14:58:34.805Z,98343.75
2023-01-09T15:01:01.517Z,98354.00
2023-01-09T15:03:39.627Z,98344.75
2023-01-09T15:06:10.542Z,98363.06
2023-01-09T15:08:37.329Z,98356.69
2023-01-09T15:11:03.959Z,98357.88
2023-01-09T15:13:34.923Z,98364.41
2023-01-09T15:16:05.671Z,98369.53
2023-01-09T15:18:40.718Z,98369.22
2023-01-09T15:21:07.503Z,98374.09
2023-01-09T15:23:34.173Z,98380.28
2023-01-09T15:26:29.607Z,98391.56
2023-01-09T15:29:17.900Z,98393.91
2023-01-09T15:31:47.268Z,98402.16
2023-01-09T15:34:23.297Z,98403.66
2023-01-09T15:36:52.815Z,98405.56
2023-01-09T15:39:31.392Z,98414.97
2023-01-09T15:42:18.757Z,98411.28
2023-01-09T15:44:48.579Z,98409.69
2023-01-09T15:47:24.115Z,98427.97
2023-01-09T15:49:51.145Z,98429.28
2023-01-09T15:52:18.901Z,98428.47
2023-01-09T15:54:49.264Z,98428.19
2023-01-09T15:57:25.064Z,98439.50
2023-01-09T15:59:52.609Z,98444.28
2023-01-09T16:02:39.777Z,98453.09
2023-01-09T16:05:09.242Z,98456.22
2023-01-09T16:07:35.838Z,98455.66
2023-01-09T16:10:02.637Z,98460.22
2023-01-09T16:12:29.318Z,98467.41
2023-01-09T16:14:59.446Z,98472.19
2023-01-09T16:17:27.172Z,98478.06
2023-01-09T16:19:58.217Z,98482.84
2023-01-09T16:22:33.084Z,98484.44
2023-01-09T16:25:02.626Z,98488.66
2023-01-09T16:27:33.376Z,98501.50
2023-01-09T16:30:08.595Z,98499.34
2023-01-09T16:32:46.447Z,98510.56
2023-01-09T16:35:19.500Z,98502.72
2023-01-09T16:37:46.875Z,98512.69
2023-01-09T16:40:22.460Z,98523.91
2023-01-09T16:43:00.683Z,98528.13
2023-01-09T16:45:34.622Z,98527.63
2023-01-09T16:48:03.834Z,98531.91
2023-01-09T16:50:30.450Z,98536.41
2023-01-09T16:52:57.318Z,98535.81
2023-01-09T16:55:24.294Z,98540.59
2023-01-09T16:57:51.118Z,98543.00
2023-01-09T17:00:20.467Z,98549.75
2023-01-09T17:02:48.275Z,98558.31
2023-01-09T17:05:15.044Z,98563.09
2023-01-09T17:07:41.776Z,98558.53
2023-01-09T17:10:20.030Z,98555.34
2023-01-09T17:12:46.615Z,98552.59
2023-01-09T17:15:13.347Z,98556.09
2023-01-09T17:17:39.888Z,98555.78
2023-01-09T17:20:15.334Z,98559.56
2023-01-09T17:22:41.997Z,98554.75
2023-01-09T17:25:32.163Z,98556.13
2023-01-09T17:28:17.633Z,98567.75
2023-01-09T17:30:44.173Z,98570.13
2023-01-09T17:33:16.074Z,98579.00
2023-01-09T17:35:43.239Z,98586.75
2023-01-09T17:38:15.119Z,98590.25
2023-01-09T17:40:42.913Z,98585.38
2023-01-09T17:43:09.744Z,98588.34
2023-01-09T17:45:38.044Z,98604.75
2023-01-09T17:48:04.959Z,98598.38
2023-01-09T17:50:34.691Z,98610.75
2023-01-09T17:53:01.279Z,98616.13
2023-01-09T17:55:27.866Z,98617.28
2023-01-09T17:57:54.464Z,98625.66
2023-01-09T18:00:29.054Z,98628.16
2023-01-09T18:02:57.153Z,98646.41
2023-01-09T18:05:25.064Z,98636.81
2023-01-09T18:07:51.762Z,98644.91
2023-01-09T18:10:23.280Z,98637.50
2023-01-09T18:12:51.434Z,98643.19
2023-01-09T18:15:18.525Z,98656.38
2023-01-09T18:17:45.220Z,98663.91
2023-01-09T18:20:12.467Z,98662.59
2023-01-09T18:22:39.066Z,98662.88
2023-01-09T18:25:06.141Z,98660.75
2023-01-09T18:27:35.058Z,98680.63
2023-01-09T18:30:03.683Z,98672.06
2023-01-09T18:32:31.651Z,98670.47
2023-01-09T18:34:58.246Z,98685.16
2023-01-09T18:37:24.807Z,98696.72
2023-01-09T18:39:51.353Z,98692.69
2023-01-09T18:42:17.960Z,98707.72
2023-01-09T18:44:44.581Z,98706.94
2023-01-09T18:47:11.280Z,98712.56
2023-01-09T18:49:37.999Z,98711.25
2023-01-09T18:52:07.375Z,98712.88
2023-01-09T18:54:34.223Z,98724.41
2023-01-09T18:57:00.828Z,98726.31
2023-01-09T18:59:27.364Z,98733.06
2023-01-09T19:01:53.914Z,98730.66
2023-01-09T19:04:20.613Z,98738.44
2023-01-09T19:06:47.209Z,98737.88
2023-01-09T19:09:13.849Z,98747.31
2023-01-09T19:11:44.267Z,98742.50
2023-01-09T19:14:11.505Z,98752.19
2023-01-09T19:16:38.071Z,98766.13
2023-01-09T19:19:06.567Z,98761.31
2023-01-09T19:21:33.362Z,98773.06
2023-01-09T19:24:00.041Z,98771.47
2023-01-09T19:26:28.364Z,98763.66
2023-01-09T19:28:57.411Z,98760.19
2023-01-09T19:31:25.700Z,98777.88
2023-01-09T19:33:52.721Z,98780.81
2023-01-09T19:36:19.783Z,98789.72
2023-01-09T19:38:47.058Z,98800.66
2023-01-09T19:41:19.427Z,98802.28
2023-01-09T19:43:47.170Z,98810.00
2023-01-09T19:46:16.864Z,98815.34
2023-01-09T19:48:43.428Z,98818.53
2023-01-09T19:51:11.594Z,98817.75
2023-01-09T19:53:38.645Z,98836.22
2023-01-09T19:56:13.721Z,98837.28
2023-01-09T19:58:42.335Z,98844.75
2023-01-09T20:01:18.118Z,98847.94
2023-01-09T20:03:46.697Z,98862.69
2023-01-09T20:06:17.618Z,98858.09
2023-01-09T20:08:45.620Z,98862.66
2023-01-09T20:11:12.473Z,98869.88
2023-01-09T20:13:39.128Z,98864.50
2023-01-09T20:16:06.752Z,98870.97
2023-01-09T20:18:34.631Z,98879.56
2023-01-09T20:21:01.900Z,98887.91
2023-01-09T20:23:28.774Z,98882.78
2023-01-09T20:25:57.420Z,98885.72
2023-01-09T20:28:25.321Z,98897.22
2023-01-09T20:30:53.534Z,98898.53
2023-01-09T20:33:21.363Z,98907.91
2023-01-09T20:35:48.292Z,98913.22
2023-01-09T20:38:14.920Z,98915.66
2023-01-09T20:40:44.014Z,98928.78
2023-01-09T20:43:12.556Z,98926.03
2023-01-09T20:45:40.163Z,98931.66
2023-01-09T20:48:07.172Z,98940.25
2023-01-09T20:50:33.862Z,98945.09
2023-01-09T20:53:00.529Z,98940.25
2023-01-09T20:55:27.060Z,98948.03
2023-01-09T20:57:53.638Z,98950.41
2023-01-09T21:00:20.883Z,98950.72
2023-01-09T21:02:47.656Z,98955.00
2023-01-09T21:05:14.328Z,98953.91
2023-01-09T21:07:40.935Z,98957.69
2023-01-09T21:10:07.950Z,98966.28
2023-01-09T21:12:37.748Z,98959.59
2023-01-09T21:15:08.347Z,98971.97
2023-01-09T21:17:39.566Z,98973.63
2023-01-09T21:20:09.938Z,98979.78
2023-01-09T21:22:37.078Z,98977.41
2023-01-09T21:25:04.736Z,98983.06
2023-01-09T21:27:35.769Z,98995.41
2023-01-09T21:30:04.158Z,98988.66
2023-01-09T21:32:32.866Z,99001.28
2023-01-09T21:35:04.230Z,98998.63
2023-01-09T21:37:33.554Z,99016.59
2023-01-09T21:40:01.133Z,99031.34
2023-01-09T21:42:46.276Z,99018.50
2023-01-09T21:45:36.200Z,99033.53
2023-01-09T21:48:04.606Z,99034.09
2023-01-09T21:50:31.307Z,99044.56
2023-01-09T21:52:57.888Z,99045.09
2023-01-09T21:55:24.487Z,99048.84
2023-01-09T21:57:55.896Z,99064.13
2023-01-09T22:00:23.900Z,99061.72
2023-01-09T22:02:51.429Z,99077.81
2023-01-09T22:05:17.978Z,99086.13
2023-01-09T22:07:44.579Z,99087.75
2023-01-09T22:10:11.843Z,99094.19
2023-01-09T22:12:38.712Z,99092.31
2023-01-09T22:15:06.168Z,99101.19
2023-01-09T22:17:32.875Z,99112.22
2023-01-09T22:19:59.435Z,99117.56
2023-01-09T22:22:26.018Z,99125.34
2023-01-09T22:24:53.375Z,99127.50
2023-01-09T22:27:19.965Z,99133.13
2023-01-09T22:29:46.575Z,99136.63
2023-01-09T22:32:13.248Z,99138.22
2023-01-09T22:34:39.778Z,99151.09
2023-01-09T22:37:06.469Z,99149.19
2023-01-09T22:39:33.139Z,99150.56
2023-01-09T22:41:59.771Z,99158.06
2023-01-09T22:44:26.429Z,99159.13
2023-01-09T22:46:53.110Z,99168.78
2023-01-09T22:49:19.660Z,99168.78
2023-01-09T22:51:46.195Z,99173.09
2023-01-09T22:54:12.800Z,99184.34
2023-01-09T22:56:39.352Z,99191.84
2023-01-09T22:59:05.953Z,99188.59
2023-01-09T23:01:32.682Z,99192.38
2023-01-09T23:03:59.303Z,99206.31
2023-01-09T23:06:25.982Z,99219.19
2023-01-09T23:08:53.269Z,99224.25
2023-01-09T23:11:47.396Z,99231.53
2023-01-09T23:14:14.055Z,99240.91
2023-01-09T23:16:40.803Z,99250.84
2023-01-09T23:19:09.903Z,99262.06
2023-01-09T23:21:37.100Z,99251.34
2023-01-09T23:24:04.340Z,99260.44
2023-01-09T23:26:30.962Z,99256.44
2023-01-09T23:28:57.530Z,99265.81
2023-01-09T23:31:24.162Z,99266.88
2023-01-09T23:33:50.884Z,99272.78
2023-01-09T23:36:17.484Z,99275.47
2023-01-09T23:38:44.792Z,99285.41
2023-01-09T23:41:11.376Z,99291.28
2023-01-09T23:43:38.066Z,99285.69
2023-01-09T23:46:04.787Z,99292.91
2023-01-09T23:48:31.475Z,99291.00
2023-01-09T23:50:58.035Z,99296.38
2023-01-09T23:53:24.649Z,99306.03
2023-01-09T23:55:55.176Z,99319.44
2023-01-09T23:58:21.969Z,99328.81
